createdAt,value
2018-04-11T00:00:33.318Z,0.80
2018-04-11T00:03:00.888Z,0.70
2018-04-11T00:05:28.439Z,0.83
2018-04-11T00:07:56.009Z,0.67
2018-04-11T00:10:23.565Z,1.03
2018-04-11T00:12:51.136Z,0.80
2018-04-11T00:15:18.676Z,0.80
2018-04-11T00:17:46.252Z,0.80
2018-04-11T00:20:13.806Z,1.13
2018-04-11T00:22:41.369Z,0.70
2018-04-11T00:25:08.916Z,0.87
2018-04-11T00:27:36.497Z,0.70
2018-04-11T00:30:04.046Z,0.93
2018-04-11T00:32:31.613Z,0.93
2018-04-11T00:34:59.190Z,3.30
2018-04-11T00:37:26.736Z,3.23
2018-04-11T00:39:54.309Z,1.77
2018-04-11T00:42:21.849Z,0.90
2018-04-11T00:44:50.178Z,0.70
2018-04-11T00:47:17.716Z,0.60
2018-04-11T00:49:45.293Z,1.47
2018-04-11T00:52:12.843Z,1.37
2018-04-11T00:54:40.413Z,1.03
2018-04-11T00:57:07.956Z,0.70
2018-04-11T00:59:35.531Z,0.60
2018-04-11T01:02:03.300Z,0.77
2018-04-11T01:04:30.856Z,0.70
2018-04-11T01:06:58.406Z,0.60
2018-04-11T01:09:25.969Z,0.60
2018-04-11T01:11:53.510Z,0.90
2018-04-11T01:14:21.071Z,1.03
2018-04-11T01:16:48.604Z,0.67
2018-04-11T01:19:16.170Z,0.77
2018-04-11T01:21:43.713Z,0.77
2018-04-11T01:24:11.276Z,0.60
2018-04-11T01:26:38.820Z,1.10
2018-04-11T01:29:07.163Z,0.90
2018-04-11T01:31:34.709Z,0.80
2018-04-11T01:34:02.276Z,0.80
2018-04-11T01:36:29.812Z,0.80
2018-04-11T01:38:57.394Z,1.73
2018-04-11T01:41:24.935Z,0.90
2018-04-11T01:43:52.478Z,0.90
2018-04-11T01:46:20.052Z,2.37
2018-04-11T01:48:47.597Z,5.50
2018-04-11T01:51:15.169Z,5.63
2018-04-11T01:53:42.717Z,13.40
2018-04-11T01:56:10.298Z,8.23
2018-04-11T01:58:38.777Z,2.43
2018-04-11T02:01:06.358Z,8.17
2018-04-11T02:03:33.901Z,3.20
2018-04-11T02:06:01.481Z,4.63
2018-04-11T02:08:29.025Z,2.77
2018-04-11T02:10:56.593Z,2.93
2018-04-11T02:13:24.142Z,1.07
2018-04-11T02:15:51.700Z,1.40
2018-04-11T02:18:20.220Z,2.30
2018-04-11T02:20:48.553Z,1.63
2018-04-11T02:23:16.096Z,2.20
2018-04-11T02:25:43.667Z,1.20
2018-04-11T02:28:11.208Z,0.90
2018-04-11T02:30:39.171Z,0.80
2018-04-11T02:33:06.718Z,0.80
2018-04-11T02:35:34.573Z,0.77
2018-04-11T02:38:02.875Z,0.80
2018-04-11T02:40:30.438Z,0.60
2018-04-11T02:42:57.985Z,0.70
2018-04-11T02:45:25.539Z,0.80
2018-04-11T02:47:53.072Z,0.80
2018-04-11T02:50:20.636Z,0.70
2018-04-11T02:52:48.937Z,1.20
2018-04-11T02:55:16.488Z,10.63
2018-04-11T02:57:44.055Z,2.43
2018-04-11T03:00:11.609Z,3.57
2018-04-11T03:02:41.004Z,0.70
2018-04-11T03:05:08.579Z,0.90
2018-04-11T03:07:36.145Z,1.20
2018-04-11T03:10:03.685Z,0.90
2018-04-11T03:12:31.255Z,1.00
2018-04-11T03:14:59.739Z,0.70
2018-04-11T03:17:27.302Z,1.10
2018-04-11T03:19:54.836Z,0.70
2018-04-11T03:22:22.449Z,0.80
2018-04-11T03:24:49.969Z,1.23
2018-04-11T03:27:17.545Z,7.37
2018-04-11T03:29:45.104Z,6.27
2018-04-11T03:32:12.701Z,1.37
2018-04-11T03:34:41.014Z,4.37
2018-04-11T03:37:08.583Z,9.77
2018-04-11T03:39:36.130Z,21.87
2018-04-11T03:42:03.743Z,7.90
2018-04-11T03:44:31.261Z,6.33
2018-04-11T03:46:58.829Z,1.80
2018-04-11T03:49:26.381Z,10.83
2018-04-11T03:51:53.965Z,5.77
2018-04-11T03:54:21.516Z,10.40
2018-04-11T03:56:49.092Z,8.40
2018-04-11T03:59:16.677Z,3.93
2018-04-11T04:01:45.052Z,1.37
2018-04-11T04:04:12.568Z,1.20
2018-04-11T04:06:40.158Z,1.27
2018-04-11T04:09:07.714Z,0.90
2018-04-11T04:11:35.262Z,0.60
2018-04-11T04:14:14.528Z,1.37
2018-04-11T04:16:55.025Z,1.37
2018-04-11T04:19:31.054Z,3.13
2018-04-11T04:21:58.649Z,1.37
2018-04-11T04:24:26.192Z,4.37
2018-04-11T04:26:53.844Z,1.63
2018-04-11T04:29:21.695Z,3.00
2018-04-11T04:31:49.241Z,1.33
2018-04-11T04:34:16.811Z,1.30
2018-04-11T04:36:44.436Z,4.80
2018-04-11T04:39:12.617Z,1.27
2018-04-11T04:41:40.267Z,2.53
2018-04-11T04:44:07.932Z,7.70
2018-04-11T04:46:35.538Z,6.30
2018-04-11T04:49:03.160Z,1.50
2018-04-11T04:51:30.707Z,1.60
2018-04-11T04:53:59.149Z,1.50
2018-04-11T04:56:27.535Z,0.77
2018-04-11T04:58:55.102Z,1.00
2018-04-11T05:01:22.644Z,1.10
2018-04-11T05:03:50.246Z,2.37
2018-04-11T05:06:18.534Z,3.43
2018-04-11T05:08:46.101Z,4.70
2018-04-11T05:11:14.410Z,1.23
2018-04-11T05:13:41.982Z,1.67
2018-04-11T05:16:09.528Z,3.10
2018-04-11T05:18:37.112Z,1.87
2018-04-11T05:21:04.664Z,1.60
2018-04-11T05:23:32.210Z,2.13
2018-04-11T05:25:59.777Z,2.43
2018-04-11T05:28:27.323Z,2.40
2018-04-11T05:30:54.889Z,1.40
2018-04-11T05:33:22.435Z,1.20
2018-04-11T05:35:50.005Z,4.70
2018-04-11T05:38:17.548Z,3.43
2018-04-11T05:40:45.125Z,7.60
2018-04-11T05:43:12.672Z,5.10
2018-04-11T05:45:40.236Z,1.10
2018-04-11T05:48:07.776Z,1.50
2018-04-11T05:50:35.354Z,3.10
2018-04-11T05:53:02.961Z,2.70
2018-04-11T05:55:30.505Z,4.17
2018-04-11T05:57:58.044Z,1.30
2018-04-11T06:00:25.618Z,1.20
2018-04-11T06:02:53.163Z,0.93
2018-04-11T06:05:20.725Z,1.20
2018-04-11T06:07:48.265Z,1.13
2018-04-11T06:10:15.825Z,0.90
2018-04-11T06:12:43.368Z,0.80
2018-04-11T06:15:10.930Z,0.90
2018-04-11T06:17:38.473Z,1.17
2018-04-11T06:20:06.647Z,0.80
2018-04-11T06:22:34.192Z,2.30
2018-04-11T06:25:01.842Z,1.10
2018-04-11T06:27:30.191Z,0.77
2018-04-11T06:29:58.350Z,0.80
2018-04-11T06:32:25.905Z,0.93
2018-04-11T06:34:53.472Z,1.20
2018-04-11T06:37:21.050Z,1.00
2018-04-11T06:39:48.594Z,1.30
2018-04-11T06:42:16.168Z,1.10
2018-04-11T06:44:43.717Z,0.87
2018-04-11T06:47:11.284Z,1.53
2018-04-11T06:49:38.829Z,2.13
2018-04-11T06:52:06.398Z,3.10
2018-04-11T06:54:33.976Z,5.43
2018-04-11T06:57:01.550Z,0.90
2018-04-11T06:59:29.892Z,1.03
2018-04-11T07:01:57.470Z,0.93
2018-04-11T07:04:25.136Z,0.80
2018-04-11T07:06:53.472Z,1.30
2018-04-11T07:09:21.023Z,0.83
2018-04-11T07:11:48.593Z,1.53
2018-04-11T07:14:16.132Z,1.60
2018-04-11T07:16:43.710Z,1.60
2018-04-11T07:19:11.263Z,2.23
2018-04-11T07:21:38.834Z,1.40
2018-04-11T07:24:06.387Z,1.10
2018-04-11T07:26:33.977Z,1.10
2018-04-11T07:29:01.529Z,1.07
2018-04-11T07:31:29.104Z,0.80
2018-04-11T07:33:56.654Z,1.30
2018-04-11T07:36:24.222Z,0.90
2018-04-11T07:38:52.528Z,1.07
2018-04-11T07:41:20.101Z,0.93
2018-04-11T07:43:47.662Z,1.40
2018-04-11T07:46:15.249Z,1.20
2018-04-11T07:48:42.802Z,1.60
2018-04-11T07:51:10.355Z,1.13
2018-04-11T07:53:38.685Z,1.33
2018-04-11T07:56:06.233Z,1.57
2018-04-11T07:58:33.800Z,1.87
2018-04-11T08:01:01.352Z,1.60
2018-04-11T08:03:29.736Z,1.47
2018-04-11T08:05:57.272Z,1.67
2018-04-11T08:08:24.849Z,3.50
2018-04-11T08:10:53.174Z,4.93
2018-04-11T08:13:20.761Z,2.13
2018-04-11T08:15:48.314Z,1.30
2018-04-11T08:18:15.947Z,1.60
2018-04-11T08:20:44.233Z,1.13
2018-04-11T08:23:11.825Z,1.50
2018-04-11T08:25:39.378Z,1.07
2018-04-11T08:28:06.993Z,1.17
2018-04-11T08:30:34.542Z,1.30
2018-04-11T08:33:02.116Z,1.10
2018-04-11T08:35:29.665Z,1.27
2018-04-11T08:37:57.253Z,1.40
2018-04-11T08:40:24.815Z,0.97
2018-04-11T08:42:52.394Z,1.23
2018-04-11T08:45:19.936Z,1.00
2018-04-11T08:47:47.504Z,1.00
2018-04-11T08:50:15.052Z,0.93
2018-04-11T08:52:42.597Z,1.00
2018-04-11T08:55:10.173Z,1.00
2018-04-11T08:57:37.738Z,1.07
2018-04-11T09:00:05.305Z,1.30
2018-04-11T09:02:33.096Z,1.10
2018-04-11T09:05:00.669Z,1.30
2018-04-11T09:07:28.208Z,1.47
2018-04-11T09:09:56.549Z,1.57
2018-04-11T09:12:24.098Z,1.40
2018-04-11T09:14:51.674Z,1.43
2018-04-11T09:17:19.233Z,1.23
2018-04-11T09:19:46.806Z,1.37
2018-04-11T09:22:14.357Z,1.33
2018-04-11T09:24:42.702Z,1.30
2018-04-11T09:27:10.263Z,1.13
2018-04-11T09:29:37.836Z,1.10
2018-04-11T09:32:05.385Z,1.97
2018-04-11T09:34:32.962Z,1.30
2018-04-11T09:37:00.510Z,1.10
2018-04-11T09:39:28.076Z,1.30
2018-04-11T09:41:55.659Z,1.00
2018-04-11T09:44:23.233Z,1.43
2018-04-11T09:46:50.783Z,1.20
2018-04-11T09:49:19.121Z,1.23
2018-04-11T09:51:46.674Z,1.37
2018-04-11T09:54:14.245Z,1.00
2018-04-11T09:56:44.185Z,1.13
2018-04-11T09:59:11.757Z,1.20
2018-04-11T10:01:44.965Z,0.90
2018-04-11T10:04:12.535Z,1.30
2018-04-11T10:06:40.089Z,1.30
2018-04-11T10:09:08.645Z,1.27
2018-04-11T10:11:36.193Z,1.50
2018-04-11T10:14:05.205Z,1.40
2018-04-11T10:16:32.793Z,1.33
2018-04-11T10:19:00.349Z,1.00
2018-04-11T10:21:27.912Z,1.07
2018-04-11T10:23:55.454Z,1.10
2018-04-11T10:26:23.025Z,1.03
2018-04-11T10:28:50.578Z,1.30
2018-04-11T10:31:18.154Z,1.37
2018-04-11T10:33:48.111Z,1.30
2018-04-11T10:36:15.842Z,1.30
2018-04-11T10:38:43.385Z,1.07
2018-04-11T10:41:10.955Z,1.17
2018-04-11T10:43:38.502Z,1.23
2018-04-11T10:46:06.080Z,1.00
2018-04-11T10:48:33.679Z,1.20
2018-04-11T10:51:01.254Z,1.03
2018-04-11T10:53:28.795Z,1.10
2018-04-11T10:55:56.370Z,0.80
2018-04-11T10:58:23.925Z,1.27
2018-04-11T11:00:51.550Z,1.20
2018-04-11T11:03:19.061Z,2.17
2018-04-11T11:05:46.630Z,0.80
2018-04-11T11:08:14.261Z,0.90
2018-04-11T11:10:41.834Z,0.70
2018-04-11T11:13:09.381Z,0.90
2018-04-11T11:15:36.957Z,0.90
2018-04-11T11:18:04.573Z,0.90
2018-04-11T11:20:32.913Z,1.20
2018-04-11T11:23:00.482Z,0.77
2018-04-11T11:25:28.052Z,0.90
2018-04-11T11:27:55.606Z,1.20
2018-04-11T11:30:23.165Z,1.10
2018-04-11T11:32:52.249Z,0.80
2018-04-11T11:35:19.825Z,1.10
2018-04-11T11:37:47.402Z,0.90
2018-04-11T11:40:14.964Z,2.57
2018-04-11T11:42:43.306Z,1.40
2018-04-11T11:45:10.861Z,1.00
2018-04-11T11:47:38.574Z,1.30
2018-04-11T11:50:06.131Z,1.00
2018-04-11T11:52:33.711Z,0.97
2018-04-11T11:55:01.257Z,0.73
2018-04-11T11:57:28.834Z,0.77
2018-04-11T11:59:56.389Z,1.20
2018-04-11T12:02:23.985Z,1.20
2018-04-11T12:04:51.599Z,1.23
2018-04-11T12:07:19.133Z,0.80
2018-04-11T12:09:47.454Z,0.90
2018-04-11T12:12:15.027Z,1.07
2018-04-11T12:14:42.568Z,1.10
2018-04-11T12:17:10.132Z,1.20
2018-04-11T12:19:37.685Z,1.00
2018-04-11T12:22:05.266Z,0.83
2018-04-11T12:24:32.817Z,1.00
2018-04-11T12:27:00.396Z,2.20
2018-04-11T12:29:27.993Z,1.20
2018-04-11T12:31:55.550Z,1.20
2018-04-11T12:34:23.093Z,1.80
2018-04-11T12:36:50.661Z,1.33
2018-04-11T12:39:18.205Z,1.40
2018-04-11T12:41:46.553Z,1.40
2018-04-11T12:44:14.106Z,1.50
2018-04-11T12:46:41.652Z,1.47
2018-04-11T12:49:09.264Z,0.83
2018-04-11T12:51:37.586Z,1.50
2018-04-11T12:54:05.155Z,1.03
2018-04-11T12:56:32.696Z,1.30
2018-04-11T12:59:00.271Z,1.20
2018-04-11T13:01:27.825Z,1.10
2018-04-11T13:03:55.404Z,1.40
2018-04-11T13:06:22.957Z,1.10
2018-04-11T13:08:50.904Z,1.10
2018-04-11T13:11:18.456Z,1.57
2018-04-11T13:13:46.305Z,1.13
2018-04-11T13:16:13.857Z,2.57
2018-04-11T13:18:41.517Z,1.80
2018-04-11T13:21:09.113Z,1.60
2018-04-11T13:23:36.693Z,0.90
2018-04-11T13:26:04.252Z,1.10
2018-04-11T13:28:31.825Z,0.90
2018-04-11T13:30:59.404Z,1.50
2018-04-11T13:33:27.739Z,1.20
2018-04-11T13:35:55.308Z,1.40
2018-04-11T13:38:22.868Z,1.07
2018-04-11T13:40:50.424Z,1.40
2018-04-11T13:43:18.005Z,1.40
2018-04-11T13:45:45.557Z,1.10
2018-04-11T13:48:13.355Z,1.27
2018-04-11T13:50:40.915Z,1.40
2018-04-11T13:53:08.490Z,0.87
2018-04-11T13:55:36.080Z,1.07
2018-04-11T13:58:03.658Z,1.20
2018-04-11T14:00:31.213Z,4.37
2018-04-11T14:02:58.793Z,1.10
2018-04-11T14:05:27.117Z,1.10
2018-04-11T14:07:54.685Z,0.93
2018-04-11T14:10:22.268Z,1.37
2018-04-11T14:12:49.826Z,1.40
2018-04-11T14:15:17.399Z,1.50
2018-04-11T14:17:44.946Z,1.50
2018-04-11T14:20:12.521Z,1.87
2018-04-11T14:22:40.831Z,1.40
2018-04-11T14:25:08.406Z,1.70
2018-04-11T14:27:35.950Z,1.60
2018-04-11T14:30:03.516Z,1.60
2018-04-11T14:32:31.067Z,1.20
2018-04-11T14:34:58.633Z,1.10
2018-04-11T14:37:26.293Z,1.50
2018-04-11T14:39:53.861Z,1.03
2018-04-11T14:42:21.417Z,1.10
2018-04-11T14:44:48.985Z,1.10
2018-04-11T14:47:16.681Z,1.90
2018-04-11T14:49:45.034Z,1.40
2018-04-11T14:52:12.587Z,1.20
2018-04-11T14:54:40.184Z,2.07
2018-04-11T14:57:07.749Z,1.13
2018-04-11T14:59:36.085Z,1.53
2018-04-11T15:02:03.638Z,1.73
2018-04-11T15:04:31.216Z,1.07
2018-04-11T15:06:59.012Z,1.10
2018-04-11T15:09:26.590Z,0.97
2018-04-11T15:11:54.144Z,1.10
2018-04-11T15:14:21.710Z,1.10
2018-04-11T15:16:49.258Z,0.80
2018-04-11T15:19:16.811Z,1.30
2018-04-11T15:21:44.423Z,1.00
2018-04-11T15:24:11.965Z,1.00
2018-04-11T15:26:39.533Z,1.10
2018-04-11T15:29:07.855Z,1.10
2018-04-11T15:31:35.551Z,1.53
2018-04-11T15:34:03.099Z,1.10
2018-04-11T15:36:31.399Z,1.20
2018-04-11T15:38:58.945Z,0.90
2018-04-11T15:41:26.519Z,1.00
2018-04-11T15:43:54.064Z,1.73
2018-04-11T15:46:33.363Z,3.03
2018-04-11T15:49:00.904Z,1.57
2018-04-11T15:51:28.473Z,1.60
2018-04-11T15:53:56.790Z,1.83
2018-04-11T15:56:24.362Z,2.10
2018-04-11T15:58:51.918Z,2.07
2018-04-11T16:01:19.496Z,2.00
2018-04-11T16:03:47.087Z,3.57
2018-04-11T16:06:14.669Z,2.60
2018-04-11T16:08:42.213Z,2.50
2018-04-11T16:11:09.782Z,1.90
2018-04-11T16:13:37.326Z,2.83
2018-04-11T16:16:05.708Z,2.33
2018-04-11T16:18:33.266Z,2.73
2018-04-11T16:21:00.841Z,2.17
2018-04-11T16:23:31.567Z,1.90
2018-04-11T16:25:59.153Z,3.33
2018-04-11T16:28:26.725Z,2.70
2018-04-11T16:30:54.285Z,3.10
2018-04-11T16:33:21.859Z,2.50
2018-04-11T16:35:49.404Z,2.93
2018-04-11T16:38:16.986Z,2.70
2018-04-11T16:40:44.550Z,2.47
2018-04-11T16:43:12.120Z,2.70
2018-04-11T16:45:39.670Z,2.47
2018-04-11T16:48:07.242Z,2.00
2018-04-11T16:50:36.054Z,2.43
2018-04-11T16:53:03.651Z,2.73
2018-04-11T16:55:31.211Z,2.63
2018-04-11T16:57:58.786Z,2.40
2018-04-11T17:00:26.337Z,2.60
2018-04-11T17:02:53.906Z,3.10
2018-04-11T17:05:21.463Z,1.80
2018-04-11T17:07:49.042Z,2.20
2018-04-11T17:10:17.360Z,2.10
2018-04-11T17:12:44.936Z,2.97
2018-04-11T17:15:12.488Z,1.90
2018-04-11T17:17:40.062Z,1.60
2018-04-11T17:20:07.610Z,2.10
2018-04-11T17:25:50.577Z,2.37
2018-04-11T17:28:29.821Z,1.97
2018-04-11T17:31:09.912Z,2.13
2018-04-11T17:33:37.510Z,2.03
2018-04-11T17:36:05.102Z,2.23
2018-04-11T17:38:32.678Z,2.10
2018-04-11T17:41:00.227Z,4.00
2018-04-11T17:43:27.806Z,2.50
2018-04-11T17:45:55.360Z,3.10
2018-04-11T17:48:22.933Z,3.80
2018-04-11T17:50:50.479Z,2.40
2018-04-11T17:53:18.054Z,2.83
2018-04-11T17:55:45.625Z,2.60
2018-04-11T17:58:13.201Z,3.30
2018-04-11T18:00:40.781Z,3.33
2018-04-11T18:03:08.352Z,2.93
2018-04-11T18:05:35.902Z,3.20
2018-04-11T18:08:04.473Z,3.10
2018-04-11T18:10:33.083Z,2.77
2018-04-11T18:13:00.663Z,3.80
2018-04-11T18:15:28.212Z,3.73
2018-04-11T18:17:55.758Z,3.80
2018-04-11T18:20:23.382Z,3.67
2018-04-11T18:22:50.910Z,3.20
2018-04-11T18:25:18.489Z,3.83
2018-04-11T18:27:46.051Z,3.63
2018-04-11T18:30:13.620Z,4.40
2018-04-11T18:32:41.169Z,4.07
2018-04-11T18:35:08.740Z,4.27
2018-04-11T18:37:36.287Z,3.93
2018-04-11T18:40:03.869Z,4.10
2018-04-11T18:42:32.177Z,4.10
2018-04-11T18:44:59.748Z,4.17
2018-04-11T18:47:27.320Z,4.40
2018-04-11T18:49:55.658Z,4.40
2018-04-11T18:52:23.201Z,4.60
2018-04-11T18:54:50.800Z,5.40
2018-04-11T18:57:18.371Z,4.60
2018-04-11T18:59:45.949Z,5.00
2018-04-11T19:02:13.507Z,5.90
2018-04-11T19:04:41.077Z,4.77
2018-04-11T19:07:08.634Z,4.90
2018-04-11T19:09:36.217Z,5.20
2018-04-11T19:12:04.536Z,6.57
2018-04-11T19:14:32.106Z,5.93
2018-04-11T19:16:59.661Z,5.03
2018-04-11T19:19:27.234Z,5.00
2018-04-11T19:21:54.826Z,5.93
2018-04-11T19:24:22.502Z,5.00
2018-04-11T19:26:50.057Z,5.50
2018-04-11T19:29:17.606Z,6.50
2018-04-11T19:31:46.014Z,5.10
2018-04-11T19:34:13.570Z,6.00
2018-04-11T19:36:41.147Z,4.93
2018-04-11T19:39:08.689Z,5.90
2018-04-11T19:41:36.332Z,5.57
2018-04-11T19:44:03.899Z,5.60
2018-04-11T19:46:31.482Z,4.87
2018-04-11T19:48:59.042Z,6.30
2018-04-11T19:51:26.610Z,4.97
2018-04-11T19:53:54.163Z,5.67
2018-04-11T19:56:21.741Z,6.00
2018-04-11T19:58:49.295Z,5.67
2018-04-11T20:01:16.864Z,5.20
2018-04-11T20:03:44.413Z,5.53
2018-04-11T20:06:11.993Z,5.20
2018-04-11T20:08:39.561Z,6.20
2018-04-11T20:11:07.411Z,5.37
2018-04-11T20:13:34.929Z,5.80
2018-04-11T20:16:02.665Z,6.50
2018-04-11T20:18:30.986Z,5.50
2018-04-11T20:20:58.565Z,5.37
2018-04-11T20:23:26.108Z,5.43
2018-04-11T20:25:54.446Z,5.40
2018-04-11T20:28:21.987Z,4.97
2018-04-11T20:30:49.582Z,6.60
2018-04-11T20:33:17.129Z,6.00
2018-04-11T20:35:44.905Z,6.07
2018-04-11T20:38:12.795Z,5.80
2018-04-11T20:40:40.368Z,5.60
2018-04-11T20:43:07.941Z,5.70
2018-04-11T20:45:36.264Z,5.10
2018-04-11T20:48:03.838Z,6.57
2018-04-11T20:50:31.394Z,5.10
2018-04-11T20:52:58.960Z,5.70
2018-04-11T20:55:27.952Z,5.20
2018-04-11T20:57:55.522Z,5.17
2018-04-11T21:00:23.080Z,5.80
2018-04-11T21:02:50.662Z,4.73
2018-04-11T21:05:18.212Z,5.63
2018-04-11T21:07:45.788Z,5.97
2018-04-11T21:10:13.336Z,5.37
2018-04-11T21:12:41.130Z,4.17
2018-04-11T21:15:08.682Z,4.60
2018-04-11T21:17:37.019Z,4.20
2018-04-11T21:20:04.565Z,5.37
2018-04-11T21:22:32.146Z,3.80
2018-04-11T21:24:59.711Z,4.30
2018-04-11T21:27:27.293Z,4.67
2018-04-11T21:29:54.846Z,3.70
2018-04-11T21:32:22.418Z,4.37
2018-04-11T21:34:49.970Z,4.43
2018-04-11T21:37:18.321Z,4.13
2018-04-11T21:39:45.865Z,4.63
2018-04-11T21:42:13.408Z,4.00
2018-04-11T21:44:40.981Z,3.40
2018-04-11T21:47:08.567Z,4.70
2018-04-11T21:49:36.141Z,4.07
2018-04-11T21:52:04.448Z,4.40
2018-04-11T21:54:32.016Z,4.93
2018-04-11T21:56:59.570Z,5.17
2018-04-11T21:59:27.150Z,5.53
2018-04-11T22:01:54.701Z,5.60
2018-04-11T22:04:22.313Z,4.50
2018-04-11T22:06:49.853Z,5.37
2018-04-11T22:09:18.188Z,5.00
2018-04-11T22:11:45.762Z,4.77
2018-04-11T22:14:13.333Z,4.93
2018-04-11T22:16:40.881Z,4.63
2018-04-11T22:19:08.458Z,5.50
2018-04-11T22:21:36.009Z,4.83
2018-04-11T22:24:03.581Z,5.30
2018-04-11T22:26:31.914Z,4.77
2018-04-11T22:28:59.527Z,4.73
2018-04-11T22:31:27.057Z,4.40
2018-04-11T22:33:54.623Z,5.40
2018-04-11T22:36:22.175Z,4.40
2018-04-11T22:38:49.749Z,4.87
2018-04-11T22:41:17.316Z,5.97
2018-04-11T22:43:45.632Z,5.73
2018-04-11T22:46:13.209Z,4.87
2018-04-11T22:48:40.753Z,5.60
2018-04-11T22:51:08.333Z,5.70
2018-04-11T22:53:35.887Z,6.80
2018-04-11T22:56:03.464Z,5.73
2018-04-11T22:58:31.014Z,6.33
2018-04-11T23:00:58.580Z,5.47
2018-04-11T23:03:26.132Z,6.13
2018-04-11T23:05:53.711Z,6.13
2018-04-11T23:08:21.260Z,5.87
2018-04-11T23:10:48.833Z,6.10
2018-04-11T23:13:16.391Z,5.40
2018-04-11T23:15:43.969Z,6.10
2018-04-11T23:18:12.277Z,5.33
2018-04-11T23:20:39.849Z,6.17
2018-04-11T23:23:08.175Z,5.30
2018-04-11T23:25:35.756Z,5.40
2018-04-11T23:28:03.310Z,5.67
2018-04-11T23:30:30.886Z,6.20
2018-04-11T23:32:58.433Z,5.63
2018-04-11T23:35:26.002Z,5.60
2018-04-11T23:37:53.553Z,6.03
2018-04-11T23:40:21.897Z,6.30
2018-04-11T23:42:49.445Z,5.87
2018-04-11T23:45:17.018Z,5.90
2018-04-11T23:47:45.346Z,5.40
2018-04-11T23:50:12.926Z,5.80
2018-04-11T23:52:40.485Z,5.37
2018-04-11T23:55:08.056Z,6.50
2018-04-11T23:57:35.606Z,5.73
